KAVP

Wilkes-Barre/Scranton International Airport

Airport
ICAO code
KAVP
Summary
ICAO Region
NAM
ICAO Territory
Location

Wilkes-Barre/Scranton, Pennsylvania,

Serving
Wilkes-Barre/Scranton, Pennsylvania
Coordinates
41° 20' 10" N , 75° 43' 52" W
KCC
Airport WX
Cumulonimbus
Metar
KAVP 252354Z VRB05KT 10SM CLR 02/M09 A2999 RMK AO2 SLP165 T00221094 10067 20022 53003

Description

Wilkes-Barre/Scranton International Airport is a public use airport located midway between the cities of Wilkes-Barre and Scranton, in Pittston Township, Pennsylvania.

Climatology

Humid continental climate (Köppen climate classification Dfa) - characterized by four seasons: cold, windy, snowy winters, mild springs, hot, humid summers, and crisp and relatively short autumns. Precipitation reaches its lowest in January and February and peaks in summer and latter half of spring.

Airport map

Aerial View

SKYbrary Partners:

Safety knowledge contributed by: